sensor_id;sensor_type;location;lat;lon;timestamp;P1;durP1;ratioP1;P2;durP2;ratioP2
7211;SDS011;3647;48.792;9.802;2023-02-18T08:31:40;2.00;;;1.80;;
7211;SDS011;3647;48.792;9.802;2023-02-18T08:34:07;2.00;;;1.83;;
7211;SDS011;3647;48.792;9.802;2023-02-18T08:36:34;1.80;;;1.70;;
7211;SDS011;3647;48.792;9.802;2023-02-18T08:39:01;1.70;;;1.60;;
7211;SDS011;3647;48.792;9.802;2023-02-18T08:41:28;2.17;;;1.97;;
7211;SDS011;3647;48.792;9.802;2023-02-18T08:43:55;1.70;;;1.60;;
7211;SDS011;3647;48.792;9.802;2023-02-18T08:46:21;1.60;;;1.50;;
7211;SDS011;3647;48.792;9.802;2023-02-18T08:48:49;1.90;;;1.80;;
7211;SDS011;3647;48.792;9.802;2023-02-18T08:51:17;2.27;;;1.77;;
7211;SDS011;3647;48.792;9.802;2023-02-18T08:53:45;1.73;;;1.63;;
7211;SDS011;3647;48.792;9.802;2023-02-18T08:56:13;1.97;;;1.87;;
7211;SDS011;3647;48.792;9.802;2023-02-18T08:58:41;1.80;;;1.70;;
7211;SDS011;3647;48.792;9.802;2023-02-18T09:01:09;2.23;;;1.83;;
7211;SDS011;3647;48.792;9.802;2023-02-18T09:03:37;2.10;;;1.90;;
7211;SDS011;3647;48.792;9.802;2023-02-18T09:06:05;2.23;;;2.03;;
7211;SDS011;3647;48.792;9.802;2023-02-18T09:08:34;1.90;;;1.80;;
7211;SDS011;3647;48.792;9.802;2023-02-18T09:11:01;2.10;;;2.00;;
7211;SDS011;3647;48.792;9.802;2023-02-18T09:13:29;2.43;;;1.70;;
7211;SDS011;3647;48.792;9.802;2023-02-18T09:15:57;1.67;;;1.57;;
7211;SDS011;3647;48.792;9.802;2023-02-18T09:18:25;2.60;;;1.80;;
7211;SDS011;3647;48.792;9.802;2023-02-18T09:20:54;1.87;;;1.70;;
7211;SDS011;3647;48.792;9.802;2023-02-18T09:23:24;1.70;;;1.60;;
7211;SDS011;3647;48.792;9.802;2023-02-18T09:25:51;1.77;;;1.67;;
7211;SDS011;3647;48.792;9.802;2023-02-18T09:28:18;1.93;;;1.60;;
7211;SDS011;3647;48.792;9.802;2023-02-18T09:30:45;1.70;;;1.60;;
7211;SDS011;3647;48.792;9.802;2023-02-18T09:33:12;1.60;;;1.50;;
7211;SDS011;3647;48.792;9.802;2023-02-18T09:35:39;2.20;;;1.57;;
7211;SDS011;3647;48.792;9.802;2023-02-18T09:38:06;1.90;;;1.80;;
7211;SDS011;3647;48.792;9.802;2023-02-18T09:40:35;1.90;;;1.70;;
7211;SDS011;3647;48.792;9.802;2023-02-18T09:43:08;1.90;;;1.70;;
7211;SDS011;3647;48.792;9.802;2023-02-18T09:45:43;3.37;;;1.57;;
7211;SDS011;3647;48.792;9.802;2023-02-18T09:48:10;1.67;;;1.50;;
7211;SDS011;3647;48.792;9.802;2023-02-18T09:50:37;1.77;;;1.67;;
7211;SDS011;3647;48.792;9.802;2023-02-18T09:53:03;1.70;;;1.60;;
7211;SDS011;3647;48.792;9.802;2023-02-18T09:55:31;1.60;;;1.50;;
7211;SDS011;3647;48.792;9.802;2023-02-18T09:58:02;1.40;;;1.30;;
7211;SDS011;3647;48.792;9.802;2023-02-18T10:00:33;1.63;;;1.40;;
7211;SDS011;3647;48.792;9.802;2023-02-18T10:03:03;3.10;;;1.60;;
7211;SDS011;3647;48.792;9.802;2023-02-18T10:05:32;3.07;;;1.77;;
7211;SDS011;3647;48.792;9.802;2023-02-18T10:08:01;1.90;;;1.70;;
7211;SDS011;3647;48.792;9.802;2023-02-18T10:10:33;3.87;;;1.53;;
7211;SDS011;3647;48.792;9.802;2023-02-18T10:13:06;1.67;;;1.57;;
7211;SDS011;3647;48.792;9.802;2023-02-18T10:15:38;1.37;;;1.30;;
7211;SDS011;3647;48.792;9.802;2023-02-18T10:18:07;1.60;;;1.50;;
7211;SDS011;3647;48.792;9.802;2023-02-18T10:20:45;1.60;;;1.50;;
7211;SDS011;3647;48.792;9.802;2023-02-18T10:23:13;5.83;;;3.57;;
7211;SDS011;3647;48.792;9.802;2023-02-18T10:25:42;1.73;;;1.60;;
7211;SDS011;3647;48.792;9.802;2023-02-18T10:28:12;2.43;;;1.63;;
7211;SDS011;3647;48.792;9.802;2023-02-18T10:30:41;2.77;;;1.43;;
7211;SDS011;3647;48.792;9.802;2023-02-18T10:33:16;1.27;;;1.17;;
7211;SDS011;3647;48.792;9.802;2023-02-18T10:35:52;2.60;;;1.57;;
7211;SDS011;3647;48.792;9.802;2023-02-18T10:38:25;2.37;;;1.30;;
7211;SDS011;3647;48.792;9.802;2023-02-18T10:41:03;1.60;;;1.50;;
7211;SDS011;3647;48.792;9.802;2023-02-18T10:43:43;1.83;;;1.73;;
7211;SDS011;3647;48.792;9.802;2023-02-18T10:46:19;1.30;;;1.20;;
7211;SDS011;3647;48.792;9.802;2023-02-18T10:49:03;1.83;;;1.17;;
7211;SDS011;3647;48.792;9.802;2023-02-18T10:51:46;1.17;;;1.17;;
7211;SDS011;3647;48.792;9.802;2023-02-18T10:54:22;1.30;;;1.20;;
7211;SDS011;3647;48.792;9.802;2023-02-18T10:56:50;1.40;;;1.30;;
7211;SDS011;3647;48.792;9.802;2023-02-18T10:59:20;1.88;;;1.50;;
7211;SDS011;3647;48.792;9.802;2023-02-18T11:01:52;1.30;;;1.20;;
7211;SDS011;3647;48.792;9.802;2023-02-18T11:04:23;1.45;;;1.35;;
7211;SDS011;3647;48.792;9.802;2023-02-18T11:06:52;1.60;;;1.30;;
7211;SDS011;3647;48.792;9.802;2023-02-18T11:09:23;2.27;;;1.90;;
7211;SDS011;3647;48.792;9.802;2023-02-18T11:12:03;1.57;;;1.47;;
7211;SDS011;3647;48.792;9.802;2023-02-18T11:14:41;1.67;;;1.50;;
7211;SDS011;3647;48.792;9.802;2023-02-18T11:17:11;1.93;;;1.20;;
7211;SDS011;3647;48.792;9.802;2023-02-18T11:19:45;1.80;;;1.30;;
7211;SDS011;3647;48.792;9.802;2023-02-18T11:22:18;1.75;;;1.30;;
7211;SDS011;3647;48.792;9.802;2023-02-18T11:24:47;1.43;;;1.33;;
7211;SDS011;3647;48.792;9.802;2023-02-18T11:27:20;1.97;;;1.70;;
7211;SDS011;3647;48.792;9.802;2023-02-18T11:29:53;1.65;;;1.55;;
7211;SDS011;3647;48.792;9.802;2023-02-18T11:32:23;1.45;;;1.35;;
7211;SDS011;3647;48.792;9.802;2023-02-18T11:34:52;1.38;;;1.27;;
7211;SDS011;3647;48.792;9.802;2023-02-18T11:37:19;1.75;;;1.58;;
7211;SDS011;3647;48.792;9.802;2023-02-18T11:39:48;1.10;;;1.10;;
7211;SDS011;3647;48.792;9.802;2023-02-18T11:42:18;1.40;;;1.30;;
7211;SDS011;3647;48.792;9.802;2023-02-18T11:44:50;1.40;;;1.30;;
7211;SDS011;3647;48.792;9.802;2023-02-18T11:47:25;1.30;;;1.20;;
7211;SDS011;3647;48.792;9.802;2023-02-18T11:50:05;2.67;;;1.88;;
7211;SDS011;3647;48.792;9.802;2023-02-18T11:52:42;5.28;;;1.40;;
7211;SDS011;3647;48.792;9.802;2023-02-18T11:55:14;1.70;;;1.60;;
7211;SDS011;3647;48.792;9.802;2023-02-18T11:57:43;2.27;;;1.20;;
7211;SDS011;3647;48.792;9.802;2023-02-18T12:03:03;1.30;;;1.20;;
7211;SDS011;3647;48.792;9.802;2023-02-18T12:05:40;2.05;;;1.23;;
7211;SDS011;3647;48.792;9.802;2023-02-18T12:08:10;1.52;;;1.10;;
7211;SDS011;3647;48.792;9.802;2023-02-18T12:10:44;2.28;;;1.50;;
7211;SDS011;3647;48.792;9.802;2023-02-18T12:13:18;1.90;;;1.30;;
7211;SDS011;3647;48.792;9.802;2023-02-18T12:15:53;1.30;;;1.20;;
7211;SDS011;3647;48.792;9.802;2023-02-18T12:18:29;1.40;;;1.23;;
7211;SDS011;3647;48.792;9.802;2023-02-18T12:21:07;1.70;;;1.30;;
7211;SDS011;3647;48.792;9.802;2023-02-18T12:23:55;1.70;;;1.60;;
7211;SDS011;3647;48.792;9.802;2023-02-18T12:26:32;1.40;;;1.30;;
7211;SDS011;3647;48.792;9.802;2023-02-18T12:29:14;1.30;;;1.20;;
7211;SDS011;3647;48.792;9.802;2023-02-18T12:32:15;1.90;;;1.75;;
7211;SDS011;3647;48.792;9.802;2023-02-18T12:34:56;1.40;;;1.30;;
7211;SDS011;3647;48.792;9.802;2023-02-18T12:37:42;1.35;;;1.25;;
7211;SDS011;3647;48.792;9.802;2023-02-18T12:40:39;1.40;;;1.23;;
7211;SDS011;3647;48.792;9.802;2023-02-18T12:43:28;2.10;;;1.33;;
7211;SDS011;3647;48.792;9.802;2023-02-18T12:46:11;1.27;;;1.17;;
7211;SDS011;3647;48.792;9.802;2023-02-18T12:48:53;1.10;;;1.10;;
7211;SDS011;3647;48.792;9.802;2023-02-18T12:51:42;1.40;;;1.30;;
7211;SDS011;3647;48.792;9.802;2023-02-18T12:54:24;2.70;;;1.10;;
7211;SDS011;3647;48.792;9.802;2023-02-18T12:57:24;1.23;;;1.13;;
7211;SDS011;3647;48.792;9.802;2023-02-18T13:06:05;1.50;;;1.40;;
7211;SDS011;3647;48.792;9.802;2023-02-18T13:08:44;1.10;;;1.10;;
7211;SDS011;3647;48.792;9.802;2023-02-18T13:11:22;1.30;;;1.23;;
7211;SDS011;3647;48.792;9.802;2023-02-18T13:13:59;1.60;;;1.50;;
7211;SDS011;3647;48.792;9.802;2023-02-18T13:16:30;2.23;;;1.70;;
7211;SDS011;3647;48.792;9.802;2023-02-18T13:19:00;1.43;;;1.27;;
7211;SDS011;3647;48.792;9.802;2023-02-18T13:21:34;1.47;;;1.37;;
7211;SDS011;3647;48.792;9.802;2023-02-18T13:24:05;2.00;;;1.80;;
7211;SDS011;3647;48.792;9.802;2023-02-18T13:26:35;1.60;;;1.50;;
7211;SDS011;3647;48.792;9.802;2023-02-18T13:29:08;2.20;;;1.60;;
7211;SDS011;3647;48.792;9.802;2023-02-18T13:31:51;1.50;;;1.40;;
7211;SDS011;3647;48.792;9.802;2023-02-18T13:34:28;1.50;;;1.40;;
7211;SDS011;3647;48.792;9.802;2023-02-18T13:37:05;1.70;;;1.60;;
7211;SDS011;3647;48.792;9.802;2023-02-18T13:39:36;1.30;;;1.20;;
7211;SDS011;3647;48.792;9.802;2023-02-18T13:42:21;1.50;;;1.40;;
7211;SDS011;3647;48.792;9.802;2023-02-18T13:45:04;2.25;;;1.48;;
7211;SDS011;3647;48.792;9.802;2023-02-18T13:47:47;1.73;;;1.63;;
7211;SDS011;3647;48.792;9.802;2023-02-18T13:50:20;2.20;;;1.50;;
7211;SDS011;3647;48.792;9.802;2023-02-18T13:52:56;2.10;;;1.65;;
7211;SDS011;3647;48.792;9.802;2023-02-18T13:55:38;1.87;;;1.70;;
7211;SDS011;3647;48.792;9.802;2023-02-18T13:58:10;1.60;;;1.50;;
7211;SDS011;3647;48.792;9.802;2023-02-18T14:00:45;1.80;;;1.70;;
7211;SDS011;3647;48.792;9.802;2023-02-18T14:03:19;2.97;;;2.17;;
7211;SDS011;3647;48.792;9.802;2023-02-18T14:05:57;1.70;;;1.60;;
7211;SDS011;3647;48.792;9.802;2023-02-18T14:08:30;1.65;;;1.45;;
7211;SDS011;3647;48.792;9.802;2023-02-18T14:14:29;3.40;;;1.90;;
7211;SDS011;3647;48.792;9.802;2023-02-18T14:22:56;1.60;;;1.50;;
7211;SDS011;3647;48.792;9.802;2023-02-18T14:25:30;2.60;;;1.83;;
7211;SDS011;3647;48.792;9.802;2023-02-18T14:28:01;1.60;;;1.50;;
7211;SDS011;3647;48.792;9.802;2023-02-18T14:30:32;3.70;;;1.95;;
7211;SDS011;3647;48.792;9.802;2023-02-18T14:33:03;15.63;;;9.48;;
7211;SDS011;3647;48.792;9.802;2023-02-18T14:35:31;3.33;;;2.53;;
7211;SDS011;3647;48.792;9.802;2023-02-18T14:38:08;9.07;;;5.50;;
7211;SDS011;3647;48.792;9.802;2023-02-18T14:40:51;6.60;;;3.08;;
7211;SDS011;3647;48.792;9.802;2023-02-18T14:43:32;4.45;;;3.63;;
7211;SDS011;3647;48.792;9.802;2023-02-18T14:46:15;3.95;;;2.95;;
7211;SDS011;3647;48.792;9.802;2023-02-18T14:49:01;1.83;;;1.73;;
7211;SDS011;3647;48.792;9.802;2023-02-18T14:51:40;2.42;;;2.00;;
7211;SDS011;3647;48.792;9.802;2023-02-18T14:54:13;4.23;;;2.90;;
7211;SDS011;3647;48.792;9.802;2023-02-18T14:56:55;3.58;;;2.45;;
7211;SDS011;3647;48.792;9.802;2023-02-18T14:59:24;3.13;;;1.70;;
7211;SDS011;3647;48.792;9.802;2023-02-18T15:01:54;3.97;;;3.03;;
7211;SDS011;3647;48.792;9.802;2023-02-18T15:04:22;4.60;;;2.90;;
7211;SDS011;3647;48.792;9.802;2023-02-18T15:06:57;2.03;;;1.83;;
7211;SDS011;3647;48.792;9.802;2023-02-18T15:09:25;2.37;;;1.77;;
7211;SDS011;3647;48.792;9.802;2023-02-18T15:11:55;1.80;;;1.70;;
7211;SDS011;3647;48.792;9.802;2023-02-18T15:14:25;2.03;;;1.80;;
7211;SDS011;3647;48.792;9.802;2023-02-18T15:16:55;2.05;;;1.65;;
7211;SDS011;3647;48.792;9.802;2023-02-18T15:19:24;1.92;;;1.70;;
7211;SDS011;3647;48.792;9.802;2023-02-18T15:21:52;2.10;;;2.00;;
7211;SDS011;3647;48.792;9.802;2023-02-18T15:24:24;3.15;;;1.85;;
7211;SDS011;3647;48.792;9.802;2023-02-18T15:26:53;1.73;;;1.60;;
7211;SDS011;3647;48.792;9.802;2023-02-18T15:29:25;2.30;;;2.10;;
7211;SDS011;3647;48.792;9.802;2023-02-18T15:31:53;3.03;;;1.97;;
7211;SDS011;3647;48.792;9.802;2023-02-18T15:37:09;1.90;;;1.70;;
7211;SDS011;3647;48.792;9.802;2023-02-18T15:39:38;1.67;;;1.57;;
7211;SDS011;3647;48.792;9.802;2023-02-18T15:42:08;2.70;;;2.17;;
7211;SDS011;3647;48.792;9.802;2023-02-18T15:44:42;2.33;;;1.50;;
7211;SDS011;3647;48.792;9.802;2023-02-18T15:47:12;2.28;;;1.77;;
7211;SDS011;3647;48.792;9.802;2023-02-18T15:49:43;1.80;;;1.70;;
7211;SDS011;3647;48.792;9.802;2023-02-18T15:52:12;1.70;;;1.60;;
7211;SDS011;3647;48.792;9.802;2023-02-18T15:54:39;2.83;;;1.70;;
7211;SDS011;3647;48.792;9.802;2023-02-18T15:57:10;1.93;;;1.83;;
7211;SDS011;3647;48.792;9.802;2023-02-18T15:59:43;2.37;;;1.87;;
7211;SDS011;3647;48.792;9.802;2023-02-18T16:02:13;4.00;;;2.00;;
7211;SDS011;3647;48.792;9.802;2023-02-18T16:04:44;2.17;;;1.97;;
7211;SDS011;3647;48.792;9.802;2023-02-18T16:07:21;2.63;;;1.90;;
7211;SDS011;3647;48.792;9.802;2023-02-18T16:09:50;1.70;;;1.60;;
7211;SDS011;3647;48.792;9.802;2023-02-18T16:12:32;2.10;;;1.97;;
7211;SDS011;3647;48.792;9.802;2023-02-18T16:15:02;1.40;;;1.30;;
7211;SDS011;3647;48.792;9.802;2023-02-18T16:17:30;4.20;;;2.27;;
7211;SDS011;3647;48.792;9.802;2023-02-18T16:19:58;2.43;;;1.73;;
7211;SDS011;3647;48.792;9.802;2023-02-18T16:22:31;2.67;;;1.90;;
7211;SDS011;3647;48.792;9.802;2023-02-18T16:25:00;2.27;;;2.07;;
7211;SDS011;3647;48.792;9.802;2023-02-18T16:27:34;2.27;;;2.10;;
7211;SDS011;3647;48.792;9.802;2023-02-18T16:30:06;2.17;;;1.97;;
7211;SDS011;3647;48.792;9.802;2023-02-18T16:32:41;2.17;;;1.90;;
7211;SDS011;3647;48.792;9.802;2023-02-18T16:35:08;2.30;;;2.00;;
7211;SDS011;3647;48.792;9.802;2023-02-18T16:37:35;2.47;;;2.27;;
7211;SDS011;3647;48.792;9.802;2023-02-18T16:40:11;2.63;;;2.03;;
7211;SDS011;3647;48.792;9.802;2023-02-18T16:42:49;4.20;;;1.80;;
7211;SDS011;3647;48.792;9.802;2023-02-18T16:45:17;2.13;;;1.93;;
7211;SDS011;3647;48.792;9.802;2023-02-18T16:47:44;2.07;;;1.90;;
7211;SDS011;3647;48.792;9.802;2023-02-18T16:50:13;2.53;;;2.23;;
7211;SDS011;3647;48.792;9.802;2023-02-18T16:52:43;2.03;;;1.70;;
7211;SDS011;3647;48.792;9.802;2023-02-18T16:55:14;2.10;;;2.00;;
7211;SDS011;3647;48.792;9.802;2023-02-18T16:57:43;4.30;;;2.47;;
7211;SDS011;3647;48.792;9.802;2023-02-18T17:00:12;2.33;;;2.13;;
7211;SDS011;3647;48.792;9.802;2023-02-18T17:02:41;1.93;;;1.83;;
7211;SDS011;3647;48.792;9.802;2023-02-18T17:05:10;2.70;;;2.00;;
7211;SDS011;3647;48.792;9.802;2023-02-18T17:07:42;1.90;;;1.80;;
7211;SDS011;3647;48.792;9.802;2023-02-18T17:10:09;3.03;;;1.90;;
7211;SDS011;3647;48.792;9.802;2023-02-18T17:12:35;5.67;;;1.93;;
7211;SDS011;3647;48.792;9.802;2023-02-18T17:15:09;2.67;;;2.40;;
7211;SDS011;3647;48.792;9.802;2023-02-18T17:17:46;3.77;;;3.00;;
7211;SDS011;3647;48.792;9.802;2023-02-18T17:20:13;2.77;;;2.20;;
7211;SDS011;3647;48.792;9.802;2023-02-18T17:22:40;3.00;;;2.53;;
7211;SDS011;3647;48.792;9.802;2023-02-18T17:25:11;2.20;;;1.80;;
7211;SDS011;3647;48.792;9.802;2023-02-18T17:27:42;2.90;;;2.00;;
7211;SDS011;3647;48.792;9.802;2023-02-18T17:30:09;2.33;;;2.07;;
7211;SDS011;3647;48.792;9.802;2023-02-18T17:32:38;3.10;;;2.70;;
7211;SDS011;3647;48.792;9.802;2023-02-18T17:35:06;4.10;;;3.50;;
7211;SDS011;3647;48.792;9.802;2023-02-18T17:37:35;2.80;;;2.30;;
7211;SDS011;3647;48.792;9.802;2023-02-18T17:40:02;2.67;;;2.20;;
7211;SDS011;3647;48.792;9.802;2023-02-18T17:42:29;3.57;;;2.43;;
7211;SDS011;3647;48.792;9.802;2023-02-18T17:44:59;3.23;;;2.93;;
7211;SDS011;3647;48.792;9.802;2023-02-18T17:47:28;2.40;;;2.20;;
7211;SDS011;3647;48.792;9.802;2023-02-18T17:49:56;5.17;;;2.50;;
7211;SDS011;3647;48.792;9.802;2023-02-18T17:52:27;4.20;;;2.73;;
7211;SDS011;3647;48.792;9.802;2023-02-18T17:54:55;2.40;;;2.20;;
7211;SDS011;3647;48.792;9.802;2023-02-18T17:57:22;2.50;;;2.23;;
7211;SDS011;3647;48.792;9.802;2023-02-18T17:59:49;3.67;;;2.50;;
7211;SDS011;3647;48.792;9.802;2023-02-18T18:02:23;2.90;;;2.70;;
7211;SDS011;3647;48.792;9.802;2023-02-18T18:04:52;2.93;;;2.73;;
7211;SDS011;3647;48.792;9.802;2023-02-18T18:07:20;2.50;;;2.30;;
7211;SDS011;3647;48.792;9.802;2023-02-18T18:09:47;2.87;;;2.53;;
7211;SDS011;3647;48.792;9.802;2023-02-18T18:12:14;3.10;;;2.80;;
7211;SDS011;3647;48.792;9.802;2023-02-18T18:14:41;4.10;;;3.33;;
7211;SDS011;3647;48.792;9.802;2023-02-18T18:17:09;3.90;;;3.10;;
7211;SDS011;3647;48.792;9.802;2023-02-18T18:19:36;3.70;;;3.33;;
7211;SDS011;3647;48.792;9.802;2023-02-18T18:22:03;4.33;;;3.87;;
7211;SDS011;3647;48.792;9.802;2023-02-18T18:24:31;4.67;;;3.57;;
7211;SDS011;3647;48.792;9.802;2023-02-18T18:26:58;4.43;;;3.70;;
7211;SDS011;3647;48.792;9.802;2023-02-18T18:29:25;6.17;;;5.10;;
7211;SDS011;3647;48.792;9.802;2023-02-18T18:31:52;4.27;;;3.60;;
7211;SDS011;3647;48.792;9.802;2023-02-18T18:34:19;4.87;;;3.97;;
7211;SDS011;3647;48.792;9.802;2023-02-18T18:36:45;3.17;;;2.87;;
7211;SDS011;3647;48.792;9.802;2023-02-18T18:39:12;4.47;;;4.00;;
7211;SDS011;3647;48.792;9.802;2023-02-18T18:41:40;4.33;;;3.93;;
7211;SDS011;3647;48.792;9.802;2023-02-18T18:44:08;4.10;;;3.67;;
7211;SDS011;3647;48.792;9.802;2023-02-18T18:46:36;5.27;;;4.27;;
7211;SDS011;3647;48.792;9.802;2023-02-18T18:49:03;4.47;;;4.03;;
7211;SDS011;3647;48.792;9.802;2023-02-18T18:51:30;4.97;;;4.00;;
7211;SDS011;3647;48.792;9.802;2023-02-18T18:53:58;4.50;;;4.10;;
7211;SDS011;3647;48.792;9.802;2023-02-18T18:56:25;4.70;;;3.60;;
7211;SDS011;3647;48.792;9.802;2023-02-18T18:58:53;4.00;;;3.60;;
7211;SDS011;3647;48.792;9.802;2023-02-18T19:01:20;4.50;;;4.10;;
7211;SDS011;3647;48.792;9.802;2023-02-18T19:03:51;4.93;;;4.30;;
7211;SDS011;3647;48.792;9.802;2023-02-18T19:06:18;5.63;;;4.43;;
7211;SDS011;3647;48.792;9.802;2023-02-18T19:08:45;5.20;;;4.70;;
7211;SDS011;3647;48.792;9.802;2023-02-18T19:11:12;4.67;;;4.27;;
7211;SDS011;3647;48.792;9.802;2023-02-18T19:13:40;7.73;;;4.40;;
7211;SDS011;3647;48.792;9.802;2023-02-18T19:16:11;5.73;;;4.67;;
7211;SDS011;3647;48.792;9.802;2023-02-18T19:18:43;5.10;;;4.60;;
7211;SDS011;3647;48.792;9.802;2023-02-18T19:21:10;7.33;;;4.60;;
7211;SDS011;3647;48.792;9.802;2023-02-18T19:23:37;5.10;;;4.43;;
7211;SDS011;3647;48.792;9.802;2023-02-18T19:26:04;5.53;;;4.93;;
7211;SDS011;3647;48.792;9.802;2023-02-18T19:28:31;6.63;;;4.97;;
7211;SDS011;3647;48.792;9.802;2023-02-18T19:30:59;5.37;;;4.77;;
7211;SDS011;3647;48.792;9.802;2023-02-18T19:33:27;4.80;;;4.30;;
7211;SDS011;3647;48.792;9.802;2023-02-18T19:35:54;5.00;;;4.43;;
7211;SDS011;3647;48.792;9.802;2023-02-18T19:38:21;4.43;;;4.03;;
7211;SDS011;3647;48.792;9.802;2023-02-18T19:40:47;4.83;;;3.83;;
7211;SDS011;3647;48.792;9.802;2023-02-18T19:43:14;4.77;;;4.23;;
7211;SDS011;3647;48.792;9.802;2023-02-18T19:45:42;6.27;;;4.17;;
7211;SDS011;3647;48.792;9.802;2023-02-18T19:48:11;5.13;;;4.17;;
7211;SDS011;3647;48.792;9.802;2023-02-18T19:50:41;5.77;;;4.60;;
7211;SDS011;3647;48.792;9.802;2023-02-18T19:53:08;4.67;;;4.00;;
7211;SDS011;3647;48.792;9.802;2023-02-18T19:55:36;4.70;;;4.20;;
7211;SDS011;3647;48.792;9.802;2023-02-18T19:58:03;4.90;;;4.37;;
7211;SDS011;3647;48.792;9.802;2023-02-18T20:00:30;5.17;;;4.37;;
7211;SDS011;3647;48.792;9.802;2023-02-18T20:02:57;5.60;;;4.67;;
7211;SDS011;3647;48.792;9.802;2023-02-18T20:05:23;4.50;;;4.10;;
7211;SDS011;3647;48.792;9.802;2023-02-18T20:07:52;4.73;;;4.33;;
7211;SDS011;3647;48.792;9.802;2023-02-18T20:10:19;5.80;;;4.07;;
7211;SDS011;3647;48.792;9.802;2023-02-18T20:12:49;4.67;;;4.27;;
7211;SDS011;3647;48.792;9.802;2023-02-18T20:15:17;5.53;;;4.73;;
7211;SDS011;3647;48.792;9.802;2023-02-18T20:17:44;7.03;;;4.53;;
7211;SDS011;3647;48.792;9.802;2023-02-18T20:20:11;4.60;;;4.20;;
7211;SDS011;3647;48.792;9.802;2023-02-18T20:22:38;6.77;;;4.53;;
7211;SDS011;3647;48.792;9.802;2023-02-18T20:25:06;4.70;;;4.30;;
7211;SDS011;3647;48.792;9.802;2023-02-18T20:27:33;4.60;;;4.20;;
7211;SDS011;3647;48.792;9.802;2023-02-18T20:30:01;5.30;;;4.30;;
7211;SDS011;3647;48.792;9.802;2023-02-18T20:32:28;5.47;;;4.97;;
7211;SDS011;3647;48.792;9.802;2023-02-18T20:34:55;4.83;;;4.07;;
7211;SDS011;3647;48.792;9.802;2023-02-18T20:37:22;4.97;;;4.47;;
7211;SDS011;3647;48.792;9.802;2023-02-18T20:39:49;5.37;;;4.83;;
7211;SDS011;3647;48.792;9.802;2023-02-18T20:42:17;5.57;;;4.67;;
7211;SDS011;3647;48.792;9.802;2023-02-18T20:44:44;4.73;;;4.33;;
7211;SDS011;3647;48.792;9.802;2023-02-18T20:47:13;4.60;;;4.03;;
7211;SDS011;3647;48.792;9.802;2023-02-18T20:49:40;5.23;;;4.67;;
7211;SDS011;3647;48.792;9.802;2023-02-18T20:52:07;4.70;;;4.23;;
7211;SDS011;3647;48.792;9.802;2023-02-18T20:54:34;4.67;;;4.13;;
7211;SDS011;3647;48.792;9.802;2023-02-18T20:57:02;5.77;;;4.07;;
7211;SDS011;3647;48.792;9.802;2023-02-18T20:59:30;5.23;;;4.73;;
7211;SDS011;3647;48.792;9.802;2023-02-18T21:01:58;5.40;;;4.50;;
7211;SDS011;3647;48.792;9.802;2023-02-18T21:04:25;4.17;;;3.80;;
7211;SDS011;3647;48.792;9.802;2023-02-18T21:06:52;4.63;;;4.23;;
7211;SDS011;3647;48.792;9.802;2023-02-18T21:09:19;5.30;;;4.70;;
7211;SDS011;3647;48.792;9.802;2023-02-18T21:11:46;5.03;;;4.47;;
7211;SDS011;3647;48.792;9.802;2023-02-18T21:14:14;4.70;;;4.20;;
7211;SDS011;3647;48.792;9.802;2023-02-18T21:16:42;5.87;;;4.53;;
